createdAt,value
2022-12-14T00:02:31.922Z,96491.08
2022-12-14T00:12:36.720Z,96489.58
2022-12-14T00:22:40.734Z,96482.70
2022-12-14T00:32:45.184Z,96480.27
2022-12-14T00:42:49.147Z,96483.93
2022-12-14T00:52:53.018Z,96480.18
2022-12-14T01:02:57.095Z,96476.23
2022-12-14T01:13:01.059Z,96469.50
2022-12-14T01:23:04.948Z,96472.23
2022-12-14T01:33:08.802Z,96469.45
2022-12-14T01:43:15.760Z,96466.34
2022-12-14T01:53:23.092Z,96453.45
2022-12-14T02:03:31.433Z,96447.80
2022-12-14T02:13:43.251Z,96440.73
2022-12-14T02:24:05.803Z,96447.00
2022-12-14T02:34:15.833Z,96452.46
2022-12-14T02:44:41.171Z,96449.67
2022-12-14T02:54:54.774Z,96441.45
2022-12-14T03:04:59.353Z,96445.58
2022-12-14T03:15:05.464Z,96445.55
2022-12-14T03:25:21.556Z,96434.98
2022-12-14T03:35:33.050Z,96430.77
2022-12-14T03:45:56.505Z,96431.45
2022-12-14T03:56:07.499Z,96421.85
2022-12-14T04:06:29.906Z,96408.19
2022-12-14T04:16:58.648Z,96408.07
2022-12-14T04:27:10.793Z,96393.98
2022-12-14T04:37:19.660Z,96393.80
2022-12-14T04:47:31.004Z,96398.74
2022-12-14T04:57:48.041Z,96390.41
2022-12-14T05:07:58.395Z,96375.25
2022-12-14T05:18:06.039Z,96363.08
2022-12-14T05:28:13.804Z,96349.48
2022-12-14T05:38:17.795Z,96345.66
2022-12-14T05:48:21.751Z,96339.53
2022-12-14T05:58:26.030Z,96342.35
2022-12-14T06:08:39.139Z,96343.77
2022-12-14T06:18:51.641Z,96336.05
2022-12-14T06:28:57.080Z,96334.22
2022-12-14T06:39:03.576Z,96319.64
2022-12-14T06:49:08.185Z,96324.56
2022-12-14T06:59:12.393Z,96308.36
2022-12-14T07:09:16.253Z,96304.19
2022-12-14T07:19:20.498Z,96292.34
2022-12-14T07:29:27.360Z,96294.94
2022-12-14T07:39:35.202Z,96278.55
2022-12-14T07:49:39.272Z,96275.94
2022-12-14T07:59:43.463Z,96264.77
2022-12-14T08:09:53.790Z,96259.15
2022-12-14T08:19:57.731Z,96251.67
2022-12-14T08:30:02.011Z,96237.50
2022-12-14T08:40:07.172Z,96217.95
2022-12-14T08:50:14.799Z,96202.33
2022-12-14T09:00:19.369Z,96206.69
2022-12-14T09:10:24.553Z,96206.64
2022-12-14T09:20:28.796Z,96186.18
2022-12-14T09:30:33.114Z,96176.90
2022-12-14T09:40:53.356Z,96168.52
2022-12-14T09:50:57.524Z,96165.70
2022-12-14T10:01:22.881Z,96160.40
2022-12-14T10:12:01.157Z,96150.11
2022-12-14T10:22:16.666Z,96138.94
2022-12-14T10:32:30.776Z,96135.34
2022-12-14T10:42:44.441Z,96122.20
2022-12-14T10:52:55.937Z,96113.85
2022-12-14T11:03:01.628Z,96097.92
2022-12-14T11:13:15.927Z,96088.94
2022-12-14T11:23:25.195Z,96080.44
2022-12-14T11:33:45.154Z,96066.63
2022-12-14T11:44:22.082Z,96048.51
2022-12-14T11:54:26.879Z,96042.52
2022-12-14T12:04:31.322Z,96032.88
2022-12-14T12:14:40.360Z,96022.52
2022-12-14T12:25:25.760Z,96012.21
2022-12-14T12:35:47.140Z,95982.11
2022-12-14T12:46:08.052Z,95956.11
2022-12-14T12:56:20.955Z,95936.08
2022-12-14T13:06:34.093Z,95917.37
2022-12-14T13:16:39.695Z,95902.91
2022-12-14T13:27:18.654Z,95895.79
2022-12-14T13:37:33.232Z,95879.58
2022-12-14T13:47:45.435Z,95854.06
2022-12-14T13:57:49.766Z,95806.98
2022-12-14T14:08:32.172Z,95785.48
2022-12-14T14:18:54.194Z,95755.02
2022-12-14T14:29:43.347Z,95739.55
2022-12-14T14:40:22.066Z,95726.08
2022-12-14T14:50:35.760Z,95708.98
2022-12-14T15:00:52.826Z,95694.76
2022-12-14T15:10:59.809Z,95647.67
2022-12-14T15:21:17.117Z,95636.36
2022-12-14T15:31:31.313Z,95596.06
2022-12-14T15:41:37.454Z,95556.68
2022-12-14T15:51:44.910Z,95541.30
2022-12-14T16:01:55.981Z,95540.20
2022-12-14T16:12:15.261Z,95528.36
2022-12-14T16:22:21.320Z,95507.27
2022-12-14T16:32:27.080Z,95486.27
2022-12-14T16:42:33.027Z,95472.99
2022-12-14T16:52:38.605Z,95481.73
2022-12-14T17:02:47.912Z,95498.08
2022-12-14T17:12:59.900Z,95506.14
2022-12-14T17:23:08.405Z,95508.34
2022-12-14T17:33:14.454Z,95496.53
2022-12-14T17:43:27.638Z,95503.34
2022-12-14T17:53:35.460Z,95515.20
2022-12-14T18:03:40.757Z,95501.63
2022-12-14T18:13:49.505Z,95489.56
2022-12-14T18:23:57.572Z,95483.77
2022-12-14T18:34:04.943Z,95464.81
2022-12-14T18:44:12.071Z,95459.77
2022-12-14T18:54:18.286Z,95449.34
2022-12-14T19:04:25.014Z,95439.06
2022-12-14T19:14:32.085Z,95429.06
2022-12-14T19:24:38.638Z,95410.41
2022-12-14T19:34:48.344Z,95375.58
2022-12-14T19:45:00.458Z,95357.56
2022-12-14T19:55:13.593Z,95351.70
2022-12-14T20:05:20.676Z,95345.23
2022-12-14T20:15:27.190Z,95343.80
2022-12-14T20:25:37.764Z,95350.65
2022-12-14T20:35:46.028Z,95337.92
2022-12-14T20:45:53.733Z,95334.17
2022-12-14T20:56:06.211Z,95333.99
2022-12-14T21:06:20.918Z,95325.65
2022-12-14T21:16:26.627Z,95342.80
2022-12-14T21:26:31.453Z,95339.20
2022-12-14T21:36:36.622Z,95339.07
2022-12-14T21:46:40.530Z,95340.94
2022-12-14T21:57:03.507Z,95337.33
2022-12-14T22:07:07.774Z,95357.42
2022-12-14T22:17:15.223Z,95364.65
2022-12-14T22:27:20.266Z,95359.81
2022-12-14T22:37:24.228Z,95366.04
2022-12-14T22:47:29.191Z,95370.59
2022-12-14T22:57:39.584Z,95375.01
2022-12-14T23:07:43.476Z,95372.97
2022-12-14T23:18:06.688Z,95370.45
2022-12-14T23:28:29.069Z,95372.83
2022-12-14T23:38:51.771Z,95378.23
2022-12-14T23:49:16.205Z,95383.33
2022-12-14T23:59:38.954Z,95382.20
